Time;durP1;ratioP1;P1;durP2;ratioP2;P2;SDS_P1;SDS_P2;PMS_P1;PMS_P2;Temp;Humidity;BMP_temperature;BMP_pressure;BME280_temperature;BME280_humidity;BME280_pressure;Samples;Min_cycle;Max_cycle;Signal;HPM_P1;HPM_P2
2020/12/13 00:00:32;;;;;;;22.02;14.35;;;12.30;73.70;;;;;;2101076;28;20148;-75
2020/12/13 00:01:33;;;;;;;27.33;16.13;;;12.30;73.80;;;;;;2098054;28;20032;-75
2020/12/13 00:02:33;;;;;;;23.88;15.60;;;12.30;73.80;;;;;;2104716;28;20056;-75
2020/12/13 00:03:34;;;;;;;26.08;15.60;;;12.40;74.10;;;;;;2113095;28;20047;-75
2020/12/13 00:04:35;;;;;;;25.67;15.27;;;12.30;73.90;;;;;;2113565;28;20485;-75
2020/12/13 00:05:36;;;;;;;22.90;15.85;;;12.30;73.90;;;;;;2114062;28;20118;-75
2020/12/13 00:06:36;;;;;;;27.40;16.27;;;12.40;74.00;;;;;;2104737;28;20129;-75
2020/12/13 00:07:37;;;;;;;24.83;15.82;;;12.40;74.00;;;;;;2104848;28;20097;-75
2020/12/13 00:08:38;;;;;;;27.08;16.85;;;12.40;74.00;;;;;;2114339;28;20434;-75
2020/12/13 00:09:38;;;;;;;27.00;15.32;;;12.40;74.00;;;;;;2096043;28;20051;-76
2020/12/13 00:10:39;;;;;;;24.60;15.68;;;12.40;73.90;;;;;;2087216;28;20117;-75
2020/12/13 00:11:39;;;;;;;24.90;15.25;;;12.40;73.90;;;;;;2104720;28;20474;-75
2020/12/13 00:12:40;;;;;;;22.92;15.32;;;12.40;73.90;;;;;;2113560;28;20056;-75
2020/12/13 00:13:41;;;;;;;25.77;15.88;;;12.40;73.90;;;;;;2096200;28;20111;-75
2020/12/13 00:14:41;;;;;;;26.38;15.48;;;12.40;73.90;;;;;;2096565;28;20043;-75
2020/12/13 00:15:42;;;;;;;23.85;15.80;;;12.40;73.90;;;;;;2113221;28;20458;-75
2020/12/13 00:16:42;;;;;;;22.73;14.73;;;12.40;73.90;;;;;;2101643;28;20397;-75
2020/12/13 00:17:43;;;;;;;23.15;15.10;;;12.40;73.90;;;;;;2101259;28;20016;-75
2020/12/13 00:18:45;;;;;;;24.63;15.88;;;12.40;73.90;;;;;;2113162;28;20161;-75
2020/12/13 00:19:45;;;;;;;22.58;14.68;;;12.40;73.90;;;;;;2104687;28;20020;-75
2020/12/13 00:20:46;;;;;;;22.38;16.08;;;12.40;73.90;;;;;;2104805;28;20098;-75
2020/12/13 00:21:50;;;;;;;26.95;16.25;;;12.50;73.90;;;;;;2104584;28;20070;-75
2020/12/13 00:22:51;;;;;;;26.63;16.10;;;12.40;73.90;;;;;;2104436;28;20028;-75
2020/12/13 00:23:54;;;;;;;27.10;16.63;;;12.40;73.80;;;;;;2113725;28;20111;-75
2020/12/13 00:24:54;;;;;;;24.65;15.38;;;12.40;73.80;;;;;;2112814;28;20033;-75
2020/12/13 00:25:55;;;;;;;24.65;16.05;;;12.40;73.80;;;;;;2100295;28;20543;-75
2020/12/13 00:26:55;;;;;;;23.25;15.32;;;12.40;73.80;;;;;;2099566;28;20089;-75
2020/12/13 00:27:56;;;;;;;26.05;16.63;;;12.40;73.80;;;;;;2113699;28;20024;-75
2020/12/13 00:28:56;;;;;;;29.35;17.48;;;12.50;74.00;;;;;;2113306;28;20063;-75
2020/12/13 00:29:57;;;;;;;26.38;16.90;;;12.40;73.80;;;;;;2108127;28;20156;-75
2020/12/13 00:30:57;;;;;;;25.67;17.15;;;12.50;73.90;;;;;;2107514;28;20122;-75
2020/12/13 00:31:58;;;;;;;27.05;16.85;;;12.40;73.80;;;;;;2113539;28;20349;-75
2020/12/13 00:32:59;;;;;;;27.08;17.48;;;12.40;73.80;;;;;;2112972;28;20035;-75
2020/12/13 00:33:59;;;;;;;27.45;17.40;;;12.40;73.80;;;;;;2108271;28;20031;-75
2020/12/13 00:35:00;;;;;;;28.17;18.13;;;12.40;73.80;;;;;;2108275;28;20066;-75
2020/12/13 00:36:01;;;;;;;31.27;18.30;;;12.40;73.80;;;;;;2112886;28;20024;-75
2020/12/13 00:37:01;;;;;;;28.08;17.70;;;12.40;73.80;;;;;;2113705;28;20056;-75
2020/12/13 00:38:02;;;;;;;29.13;17.80;;;12.50;73.90;;;;;;2113280;28;20032;-74
2020/12/13 00:39:03;;;;;;;30.33;18.50;;;12.50;73.80;;;;;;2113463;28;20016;-74
2020/12/13 00:40:04;;;;;;;26.63;17.80;;;12.40;73.80;;;;;;2104169;28;20024;-75
2020/12/13 00:41:05;;;;;;;27.83;18.00;;;12.50;73.90;;;;;;2104706;28;20012;-76
2020/12/13 00:42:06;;;;;;;28.88;18.85;;;12.50;73.80;;;;;;2104627;28;20024;-75
2020/12/13 00:43:06;;;;;;;30.30;19.13;;;12.50;73.80;;;;;;2104511;28;20107;-74
2020/12/13 00:44:07;;;;;;;31.88;19.05;;;12.50;73.80;;;;;;2112947;28;20599;-75
2020/12/13 00:45:07;;;;;;;28.90;17.63;;;12.50;73.80;;;;;;2113347;28;20070;-75
2020/12/13 00:46:08;;;;;;;30.58;18.60;;;12.50;73.80;;;;;;2112831;28;20027;-76
2020/12/13 00:47:08;;;;;;;31.20;17.67;;;12.50;73.80;;;;;;2113368;28;20031;-74
2020/12/13 00:48:09;;;;;;;28.33;18.23;;;12.50;73.80;;;;;;2113263;28;20039;-75
2020/12/13 00:49:10;;;;;;;28.25;17.85;;;12.50;73.80;;;;;;2113190;28;20054;-75
2020/12/13 00:50:10;;;;;;;30.67;18.40;;;12.50;73.90;;;;;;2113481;28;20599;-74
2020/12/13 00:51:11;;;;;;;29.75;18.48;;;12.50;73.80;;;;;;2099762;28;20024;-75
2020/12/13 00:52:12;;;;;;;31.55;19.25;;;12.50;73.80;;;;;;2099974;28;20533;-75
2020/12/13 00:53:12;;;;;;;31.65;19.02;;;12.50;73.90;;;;;;2108464;28;20023;-75
2020/12/13 00:54:13;;;;;;;32.75;18.98;;;12.50;73.80;;;;;;2108007;28;20039;-75
2020/12/13 00:55:13;;;;;;;31.48;18.90;;;12.50;73.80;;;;;;2113088;28;20030;-75
2020/12/13 00:56:14;;;;;;;32.05;19.35;;;12.50;73.80;;;;;;2104238;28;20382;-75
2020/12/13 00:57:15;;;;;;;31.50;18.77;;;12.50;73.80;;;;;;2104527;28;20088;-75
2020/12/13 00:58:15;;;;;;;31.23;19.63;;;12.50;73.80;;;;;;2100415;28;20158;-75
2020/12/13 00:59:16;;;;;;;29.92;18.00;;;12.50;73.90;;;;;;2100094;28;20585;-74
2020/12/13 01:00:16;;;;;;;31.58;19.10;;;12.50;73.90;;;;;;2113170;28;20491;-75
2020/12/13 01:01:17;;;;;;;30.60;19.48;;;12.50;73.90;;;;;;2112407;28;20028;-75
2020/12/13 01:02:17;;;;;;;30.60;18.77;;;12.50;73.90;;;;;;2103949;28;20543;-75
2020/12/13 01:03:18;;;;;;;32.60;19.85;;;12.50;74.00;;;;;;2104055;28;20111;-75
2020/12/13 01:04:19;;;;;;;31.58;19.58;;;12.40;73.90;;;;;;2113624;28;20493;-75
2020/12/13 01:05:19;;;;;;;31.02;19.52;;;12.50;74.00;;;;;;2113252;28;20109;-76
2020/12/13 01:06:24;;;;;;;30.35;19.23;;;12.50;74.00;;;;;;2104317;28;20034;-75
2020/12/13 01:07:25;;;;;;;29.00;18.73;;;12.50;74.00;;;;;;2104707;28;20864;-75
2020/12/13 01:08:25;;;;;;;32.42;19.83;;;12.50;74.00;;;;;;2104226;28;20028;-75
2020/12/13 01:09:26;;;;;;;27.77;18.10;;;12.50;73.90;;;;;;2092525;28;20021;-75
2020/12/13 01:10:26;;;;;;;31.33;18.25;;;12.50;73.90;;;;;;2100496;28;20059;-75
2020/12/13 01:11:28;;;;;;;29.98;19.10;;;12.50;74.00;;;;;;2112608;28;20031;-75
2020/12/13 01:12:30;;;;;;;28.65;19.17;;;12.50;74.00;;;;;;2112293;28;20473;-75
2020/12/13 01:13:31;;;;;;;29.10;17.95;;;12.50;74.00;;;;;;2112453;28;20085;-75
2020/12/13 01:14:31;;;;;;;28.85;18.10;;;12.50;74.00;;;;;;2104278;28;20058;-75
2020/12/13 01:15:32;;;;;;;29.52;18.38;;;12.50;74.00;;;;;;2104381;28;20126;-75
2020/12/13 01:16:33;;;;;;;31.33;18.95;;;12.50;74.00;;;;;;2112320;28;20098;-75
2020/12/13 01:17:33;;;;;;;31.70;18.95;;;12.50;74.00;;;;;;2104388;28;20028;-75
2020/12/13 01:18:34;;;;;;;29.20;18.85;;;12.50;74.00;;;;;;2104580;28;20032;-75
2020/12/13 01:19:34;;;;;;;26.23;17.60;;;12.50;74.00;;;;;;2112971;28;20066;-74
2020/12/13 01:20:35;;;;;;;30.60;19.25;;;12.50;74.00;;;;;;2113084;28;20032;-75
2020/12/13 01:21:35;;;;;;;31.48;18.75;;;12.50;73.90;;;;;;2113049;28;20050;-74
2020/12/13 01:22:37;;;;;;;28.52;17.58;;;12.50;73.90;;;;;;2103582;28;20016;-74
2020/12/13 01:23:38;;;;;;;27.08;18.60;;;12.50;73.80;;;;;;2096085;28;20024;-74
2020/12/13 01:24:38;;;;;;;28.10;18.55;;;12.50;73.80;;;;;;2100948;28;20457;-74
2020/12/13 01:25:39;;;;;;;28.92;18.20;;;12.50;73.80;;;;;;2100515;28;20701;-74
2020/12/13 01:26:39;;;;;;;27.95;18.63;;;12.50;73.80;;;;;;2095096;28;20024;-75
2020/12/13 01:27:40;;;;;;;25.85;17.65;;;12.50;73.80;;;;;;2104108;28;20024;-75
2020/12/13 01:28:41;;;;;;;26.88;17.90;;;12.50;73.80;;;;;;2113355;28;20023;-74
2020/12/13 01:29:41;;;;;;;24.48;16.98;;;12.50;73.80;;;;;;2112226;28;20421;-75
2020/12/13 01:30:42;;;;;;;26.65;18.42;;;12.50;73.70;;;;;;2112256;28;20036;-74
2020/12/13 01:31:45;;;;;;;27.75;17.67;;;12.50;74.40;;;;;;2112581;28;20028;-74
2020/12/13 01:32:46;;;;;;;25.02;17.48;;;12.50;74.40;;;;;;2103553;28;20039;-74
2020/12/13 01:33:47;;;;;;;24.83;17.40;;;12.50;73.70;;;;;;2104214;28;20028;-75
2020/12/13 01:34:47;;;;;;;24.60;17.35;;;12.50;73.70;;;;;;2112472;28;20197;-75
2020/12/13 01:35:48;;;;;;;26.50;17.63;;;12.50;73.70;;;;;;2112864;28;20073;-74
2020/12/13 01:36:49;;;;;;;24.27;16.95;;;12.50;73.70;;;;;;2112658;28;20453;-75
2020/12/13 01:37:49;;;;;;;25.48;17.13;;;12.50;73.70;;;;;;2104375;28;20458;-75
2020/12/13 01:38:51;;;;;;;24.23;17.00;;;12.50;73.70;;;;;;2104299;28;20676;-75
2020/12/13 01:39:51;;;;;;;22.90;15.93;;;12.50;73.70;;;;;;2100114;28;20472;-74
2020/12/13 01:40:59;;;;;;;26.40;17.63;;;12.50;73.60;;;;;;2100540;28;20052;-75
2020/12/13 01:42:00;;;;;;;25.40;16.83;;;12.50;73.70;;;;;;2112088;28;20026;-74
2020/12/13 01:43:01;;;;;;;21.23;15.35;;;12.50;73.60;;;;;;2112214;28;20502;-74
2020/12/13 01:44:04;;;;;;;21.48;15.95;;;12.50;74.30;;;;;;2113184;28;20034;-74
2020/12/13 01:45:07;;;;;;;23.70;16.15;;;12.50;73.60;;;;;;2103915;28;20055;-75
2020/12/13 01:46:08;;;;;;;22.27;15.68;;;12.50;73.60;;;;;;2104269;28;20093;-74
2020/12/13 01:47:08;;;;;;;22.17;15.35;;;12.50;73.60;;;;;;2113038;28;20471;-74
2020/12/13 01:48:09;;;;;;;20.33;15.50;;;12.50;73.60;;;;;;2112561;28;20392;-74
2020/12/13 01:49:10;;;;;;;22.08;15.20;;;12.50;73.60;;;;;;2112832;28;20019;-74
2020/12/13 01:50:22;;;;;;;21.30;15.85;;;12.50;73.60;;;;;;2104821;28;20489;-75
2020/12/13 01:51:40;;;;;;;19.48;14.95;;;12.50;73.50;;;;;;2106019;28;20032;-74
2020/12/13 01:52:47;;;;;;;18.83;14.50;;;12.50;73.50;;;;;;2112805;28;20203;-75
2020/12/13 01:53:50;;;;;;;19.45;16.10;;;12.50;73.40;;;;;;2112725;28;20027;-75
2020/12/13 01:54:56;;;;;;;21.17;16.02;;;12.50;73.40;;;;;;2113121;28;20460;-74
2020/12/13 01:55:58;;;;;;;21.27;15.60;;;12.50;73.40;;;;;;2113070;28;20031;-74
2020/12/13 01:57:01;;;;;;;20.38;15.38;;;12.50;73.30;;;;;;2112214;28;20024;-74
2020/12/13 01:58:02;;;;;;;21.17;15.13;;;12.50;73.30;;;;;;2112993;28;20070;-75
2020/12/13 01:59:03;;;;;;;20.70;15.25;;;12.50;73.40;;;;;;2112813;28;20356;-74
2020/12/13 02:00:17;;;;;;;21.85;15.27;;;12.50;73.40;;;;;;2112512;28;20039;-74
2020/12/13 02:01:19;;;;;;;17.98;14.02;;;12.50;73.50;;;;;;2111514;28;20587;-74
2020/12/13 02:02:23;;;;;;;18.23;14.05;;;12.50;73.40;;;;;;2112622;28;20480;-74
2020/12/13 02:03:28;;;;;;;18.80;15.00;;;12.50;73.40;;;;;;2112636;28;20807;-74
2020/12/13 02:04:32;;;;;;;22.70;15.25;;;12.50;73.40;;;;;;2112600;28;20531;-74
2020/12/13 02:05:34;;;;;;;19.67;14.52;;;12.50;73.40;;;;;;2104092;28;20058;-75
2020/12/13 02:06:37;;;;;;;19.42;14.32;;;12.40;73.30;;;;;;2103756;28;20032;-74
2020/12/13 02:07:38;;;;;;;18.77;14.52;;;12.50;73.40;;;;;;2112526;28;20032;-75
2020/12/13 02:08:40;;;;;;;19.80;15.00;;;12.50;73.50;;;;;;2104189;28;20067;-75
2020/12/13 02:09:41;;;;;;;20.08;15.13;;;12.40;73.40;;;;;;2103010;28;20342;-75
2020/12/13 02:10:41;;;;;;;17.42;14.40;;;12.50;73.40;;;;;;2112453;28;20032;-75
2020/12/13 02:11:42;;;;;;;19.05;14.75;;;12.40;73.30;;;;;;2113009;28;20069;-75
2020/12/13 02:12:43;;;;;;;19.88;14.63;;;12.50;73.30;;;;;;2112100;28;20020;-74
2020/12/13 02:13:43;;;;;;;17.73;13.85;;;12.40;73.30;;;;;;2113138;28;20027;-74
2020/12/13 02:14:44;;;;;;;20.77;15.30;;;12.40;73.20;;;;;;2112831;28;20023;-74
2020/12/13 02:15:45;;;;;;;19.35;14.32;;;12.40;73.20;;;;;;2112506;28;20096;-74
2020/12/13 02:16:51;;;;;;;17.80;14.20;;;12.40;73.20;;;;;;2112111;28;20055;-74
2020/12/13 02:17:54;;;;;;;19.95;14.43;;;12.40;73.20;;;;;;2104178;28;20034;-75
2020/12/13 02:18:55;;;;;;;16.88;13.63;;;12.40;73.30;;;;;;2104007;28;20020;-75
2020/12/13 02:19:56;;;;;;;17.90;14.40;;;12.40;73.20;;;;;;2113166;28;20030;-75
2020/12/13 02:20:57;;;;;;;19.77;14.65;;;12.40;73.20;;;;;;2104116;28;20170;-74
2020/12/13 02:22:00;;;;;;;19.17;14.48;;;12.40;73.30;;;;;;2103753;28;20020;-74
2020/12/13 02:23:06;;;;;;;19.75;13.68;;;12.40;73.30;;;;;;2112797;28;20349;-74
2020/12/13 02:24:07;;;;;;;19.45;15.15;;;12.40;73.40;;;;;;2112182;28;20024;-74
2020/12/13 02:25:11;;;;;;;18.60;13.82;;;12.40;73.30;;;;;;2112664;28;20125;-75
2020/12/13 02:26:15;;;;;;;17.83;14.45;;;12.40;73.40;;;;;;2112796;28;20026;-74
2020/12/13 02:27:15;;;;;;;18.17;14.00;;;12.40;73.40;;;;;;2112791;28;20063;-74
2020/12/13 02:28:16;;;;;;;19.95;13.90;;;12.40;73.40;;;;;;2112478;28;20034;-74
2020/12/13 02:29:16;;;;;;;18.10;14.18;;;12.40;73.40;;;;;;2112633;28;20063;-74
2020/12/13 02:30:17;;;;;;;17.60;13.68;;;12.40;73.50;;;;;;2103835;28;20028;-74
2020/12/13 02:31:17;;;;;;;18.30;13.95;;;12.30;73.40;;;;;;2102742;28;20610;-74
2020/12/13 02:32:18;;;;;;;20.33;14.55;;;12.30;73.40;;;;;;2112900;28;20043;-74
2020/12/13 02:33:19;;;;;;;17.45;13.98;;;12.30;73.50;;;;;;2112298;28;20019;-74
2020/12/13 02:34:19;;;;;;;19.67;14.68;;;12.30;73.50;;;;;;2103316;28;20062;-75
2020/12/13 02:35:20;;;;;;;16.90;13.38;;;12.30;73.60;;;;;;2103978;28;20012;-74
2020/12/13 02:36:21;;;;;;;20.45;14.23;;;12.40;73.60;;;;;;2112557;28;20050;-75
2020/12/13 02:37:21;;;;;;;17.63;13.65;;;12.30;73.60;;;;;;2113034;28;20063;-74
2020/12/13 02:38:22;;;;;;;17.75;13.95;;;12.30;73.60;;;;;;2112908;28;20039;-74
2020/12/13 02:39:24;;;;;;;18.75;14.13;;;12.30;73.60;;;;;;2112183;28;20462;-74
2020/12/13 02:40:25;;;;;;;18.15;13.68;;;12.30;73.60;;;;;;2103736;28;20030;-74
2020/12/13 02:41:26;;;;;;;18.40;14.57;;;12.40;73.70;;;;;;2103831;28;20085;-74
2020/12/13 02:42:26;;;;;;;18.77;13.52;;;12.30;73.60;;;;;;2112446;28;20047;-74
2020/12/13 02:43:27;;;;;;;20.10;14.10;;;12.30;73.60;;;;;;2112616;28;20031;-74
2020/12/13 02:44:28;;;;;;;19.95;14.50;;;12.30;73.60;;;;;;2112358;28;20063;-74
2020/12/13 02:45:29;;;;;;;21.90;13.70;;;12.30;73.60;;;;;;2112276;28;20077;-74
2020/12/13 02:46:29;;;;;;;21.50;15.50;;;12.30;73.60;;;;;;2111848;28;20033;-74
2020/12/13 02:47:30;;;;;;;21.50;15.00;;;12.30;73.60;;;;;;2112839;28;20031;-73
2020/12/13 02:48:31;;;;;;;21.15;14.85;;;12.30;73.60;;;;;;2112666;28;20035;-75
2020/12/13 02:49:32;;;;;;;20.45;14.45;;;12.40;73.70;;;;;;2112920;28;20031;-74
2020/12/13 02:50:33;;;;;;;18.75;13.70;;;12.30;73.60;;;;;;2112639;28;20434;-74
2020/12/13 02:51:33;;;;;;;18.05;13.52;;;12.30;73.60;;;;;;2112717;28;20146;-74
2020/12/13 02:52:34;;;;;;;17.65;13.77;;;12.30;73.60;;;;;;2112919;28;20549;-74
2020/12/13 02:53:34;;;;;;;18.63;13.52;;;12.30;73.60;;;;;;2113249;28;20134;-74
2020/12/13 02:54:36;;;;;;;21.75;15.68;;;12.30;73.60;;;;;;2104986;28;20043;-74
2020/12/13 02:55:36;;;;;;;20.58;14.60;;;12.30;73.60;;;;;;2105827;28;20054;-74
2020/12/13 02:56:41;;;;;;;18.75;14.13;;;12.40;73.60;;;;;;2114090;28;20032;-74
2020/12/13 02:57:42;;;;;;;21.10;14.77;;;12.30;73.60;;;;;;2114134;28;20039;-74
2020/12/13 02:58:42;;;;;;;21.40;15.07;;;12.30;73.60;;;;;;2114570;28;20355;-75
2020/12/13 02:59:43;;;;;;;20.90;15.02;;;12.30;73.60;;;;;;2114126;28;20046;-74
2020/12/13 03:00:43;;;;;;;18.52;14.07;;;12.30;73.60;;;;;;2101734;28;20409;-74
2020/12/13 03:01:44;;;;;;;21.67;14.55;;;12.30;73.60;;;;;;2101935;28;20172;-74
2020/12/13 03:02:45;;;;;;;18.40;13.95;;;12.30;73.60;;;;;;2113752;28;20047;-74
2020/12/13 03:03:46;;;;;;;20.45;14.73;;;12.30;74.30;;;;;;2114484;28;20046;-74
2020/12/13 03:04:47;;;;;;;18.83;13.68;;;12.30;73.60;;;;;;2114108;28;20119;-74
2020/12/13 03:05:47;;;;;;;20.98;14.65;;;12.30;73.60;;;;;;2113726;28;20420;-73
2020/12/13 03:06:48;;;;;;;18.80;13.85;;;12.30;73.60;;;;;;2114287;28;20043;-74
2020/12/13 03:07:49;;;;;;;21.55;15.05;;;12.30;73.50;;;;;;2096947;28;20032;-74
2020/12/13 03:08:49;;;;;;;19.27;14.63;;;12.30;73.60;;;;;;2096518;28;20039;-74
2020/12/13 03:09:50;;;;;;;20.10;14.82;;;12.30;73.60;;;;;;2114534;28;20023;-74
2020/12/13 03:10:50;;;;;;;24.35;14.77;;;12.40;73.70;;;;;;2113234;28;20016;-74
2020/12/13 03:11:51;;;;;;;19.60;14.73;;;12.30;73.60;;;;;;2114104;28;20031;-74
2020/12/13 03:12:51;;;;;;;19.05;13.98;;;12.30;73.50;;;;;;2113700;28;20092;-74
2020/12/13 03:13:52;;;;;;;20.35;14.43;;;12.30;73.60;;;;;;2114119;28;20023;-74
2020/12/13 03:14:53;;;;;;;19.60;14.20;;;12.30;73.60;;;;;;2114262;28;20023;-73
2020/12/13 03:15:54;;;;;;;19.38;14.00;;;12.30;73.60;;;;;;2104526;28;20036;-74
2020/12/13 03:16:54;;;;;;;20.45;15.30;;;12.30;73.50;;;;;;2104615;28;20411;-73
2020/12/13 03:17:55;;;;;;;18.58;14.73;;;12.40;73.60;;;;;;2113885;28;20762;-74
2020/12/13 03:18:55;;;;;;;19.92;14.40;;;12.30;73.50;;;;;;2113466;28;20026;-74
2020/12/13 03:19:56;;;;;;;19.83;14.88;;;12.30;73.40;;;;;;2105446;28;20034;-73
2020/12/13 03:20:56;;;;;;;20.23;14.57;;;12.30;73.40;;;;;;2105339;28;20773;-74
2020/12/13 03:21:57;;;;;;;19.77;14.10;;;12.30;73.40;;;;;;2113910;28;20357;-74
2020/12/13 03:22:57;;;;;;;18.27;14.63;;;12.30;73.40;;;;;;2113792;28;20486;-74
2020/12/13 03:23:58;;;;;;;20.83;14.70;;;12.30;73.40;;;;;;2114151;28;20026;-74
2020/12/13 03:24:59;;;;;;;20.80;14.13;;;12.30;73.40;;;;;;2114141;28;20027;-73
2020/12/13 03:25:59;;;;;;;20.00;14.02;;;12.30;73.40;;;;;;2113823;28;20016;-74
2020/12/13 03:27:00;;;;;;;20.48;14.70;;;12.30;73.40;;;;;;2114353;28;20047;-74
2020/12/13 03:28:00;;;;;;;19.75;13.93;;;12.30;73.40;;;;;;2113785;28;20026;-75
2020/12/13 03:29:01;;;;;;;19.23;14.45;;;12.30;73.40;;;;;;2113456;28;20038;-74
2020/12/13 03:30:02;;;;;;;20.65;14.05;;;12.30;73.40;;;;;;2114520;27;20035;-74
2020/12/13 03:31:03;;;;;;;20.27;13.95;;;12.30;73.50;;;;;;2113013;28;20661;-74
2020/12/13 03:32:03;;;;;;;19.88;15.13;;;12.30;73.40;;;;;;2113161;28;20035;-74
2020/12/13 03:33:04;;;;;;;18.60;14.00;;;12.30;73.40;;;;;;2113756;28;20099;-74
2020/12/13 03:34:05;;;;;;;18.92;14.13;;;12.30;73.40;;;;;;2104594;28;20123;-74
2020/12/13 03:35:05;;;;;;;19.13;14.00;;;12.30;73.40;;;;;;2104328;28;20492;-74
2020/12/13 03:36:06;;;;;;;19.63;14.43;;;12.30;73.40;;;;;;2114364;28;20084;-74
2020/12/13 03:37:07;;;;;;;18.02;13.40;;;12.30;73.40;;;;;;2104580;28;20024;-73
2020/12/13 03:38:07;;;;;;;19.23;14.05;;;12.30;73.40;;;;;;2105378;28;20020;-73
2020/12/13 03:39:08;;;;;;;18.40;14.00;;;12.30;73.40;;;;;;2105469;28;20419;-73
2020/12/13 03:40:11;;;;;;;19.33;13.93;;;12.30;73.50;;;;;;2105138;28;20030;-74
2020/12/13 03:41:11;;;;;;;17.30;13.45;;;12.30;73.50;;;;;;2114050;28;20023;-74
2020/12/13 03:42:12;;;;;;;19.58;14.38;;;12.30;73.40;;;;;;2113889;28;20069;-74
2020/12/13 03:43:12;;;;;;;16.27;13.45;;;12.30;73.40;;;;;;2113411;28;20034;-74
2020/12/13 03:44:13;;;;;;;17.15;13.70;;;12.30;73.40;;;;;;2114068;28;20111;-74
2020/12/13 03:45:14;;;;;;;17.60;13.43;;;12.30;73.40;;;;;;2113611;28;20019;-72
2020/12/13 03:46:14;;;;;;;18.15;13.27;;;12.30;73.40;;;;;;2113365;28;20449;-74
2020/12/13 03:47:15;;;;;;;17.38;12.73;;;12.30;73.40;;;;;;2114130;28;20031;-74
2020/12/13 03:48:15;;;;;;;15.02;12.07;;;12.30;73.40;;;;;;2104606;28;20120;-74
2020/12/13 03:49:16;;;;;;;17.35;13.35;;;12.30;73.40;;;;;;2104824;28;20702;-74
2020/12/13 03:50:17;;;;;;;15.10;11.85;;;12.30;73.40;;;;;;2113730;28;20063;-74
2020/12/13 03:51:17;;;;;;;15.32;12.20;;;12.30;73.40;;;;;;2114047;28;20036;-74
2020/12/13 03:52:18;;;;;;;15.93;13.00;;;12.30;73.40;;;;;;2113547;28;20031;-74
2020/12/13 03:53:18;;;;;;;15.35;12.77;;;12.30;73.40;;;;;;2113879;28;20100;-76
2020/12/13 03:54:19;;;;;;;16.17;12.00;;;12.30;73.40;;;;;;2113447;28;20073;-75
2020/12/13 03:55:20;;;;;;;14.40;11.98;;;12.30;73.40;;;;;;2114261;28;20383;-74
2020/12/13 03:56:20;;;;;;;14.27;11.75;;;12.30;73.40;;;;;;2113843;28;20020;-74
2020/12/13 03:57:21;;;;;;;15.38;11.30;;;12.30;73.40;;;;;;2104794;28;20739;-74
2020/12/13 03:58:21;;;;;;;14.75;11.27;;;12.20;73.30;;;;;;2105300;28;20095;-74
2020/12/13 03:59:22;;;;;;;12.88;11.20;;;12.20;73.30;;;;;;2113224;28;20064;-74
2020/12/13 04:00:22;;;;;;;13.82;11.15;;;12.20;73.40;;;;;;2104968;28;20067;-74
2020/12/13 04:01:23;;;;;;;13.95;10.88;;;12.20;73.30;;;;;;2104221;28;20024;-74
2020/12/13 04:02:23;;;;;;;13.48;10.88;;;12.20;73.30;;;;;;2113624;28;20850;-74
2020/12/13 04:03:24;;;;;;;13.38;10.32;;;12.20;73.40;;;;;;2113272;28;20051;-73
2020/12/13 04:04:24;;;;;;;14.05;11.02;;;12.20;73.40;;;;;;2113652;28;20023;-74
2020/12/13 04:05:26;;;;;;;13.30;10.95;;;12.20;73.40;;;;;;2112968;28;20020;-74
2020/12/13 04:06:26;;;;;;;12.05;10.02;;;12.20;73.30;;;;;;2104290;28;20024;-74
2020/12/13 04:07:27;;;;;;;12.20;9.85;;;12.20;73.40;;;;;;2104807;28;20131;-74
2020/12/13 04:08:27;;;;;;;12.68;9.95;;;12.20;73.40;;;;;;2113508;28;20103;-74
2020/12/13 04:09:28;;;;;;;12.80;10.10;;;12.20;73.40;;;;;;2113791;28;20042;-74
2020/12/13 04:10:29;;;;;;;12.75;10.15;;;12.20;73.30;;;;;;2114147;28;20026;-74
2020/12/13 04:11:31;;;;;;;11.07;9.93;;;12.20;73.40;;;;;;2104744;28;20050;-73
2020/12/13 04:12:31;;;;;;;11.05;9.38;;;12.20;73.30;;;;;;2104880;28;20618;-74
2020/12/13 04:13:32;;;;;;;11.18;9.60;;;12.30;73.40;;;;;;2105108;28;20066;-74
2020/12/13 04:14:32;;;;;;;10.98;9.10;;;12.30;73.40;;;;;;2104510;28;20102;-73
2020/12/13 04:15:33;;;;;;;10.55;9.20;;;12.20;73.30;;;;;;2113349;28;20059;-73
2020/12/13 04:16:33;;;;;;;12.05;9.65;;;12.20;73.30;;;;;;2112858;28;20035;-73
2020/12/13 04:17:34;;;;;;;12.13;10.10;;;12.20;73.30;;;;;;2113542;28;20517;-73
2020/12/13 04:18:35;;;;;;;11.65;9.63;;;12.20;73.30;;;;;;2113689;28;20107;-73
2020/12/13 04:19:35;;;;;;;11.23;9.07;;;12.20;73.30;;;;;;2113825;28;20438;-73
2020/12/13 04:20:36;;;;;;;12.98;9.85;;;12.20;73.30;;;;;;2113623;28;20600;-73
2020/12/13 04:21:38;;;;;;;10.95;9.18;;;12.20;73.30;;;;;;2114087;28;20461;-73
2020/12/13 04:22:39;;;;;;;11.63;9.43;;;12.20;73.30;;;;;;2103505;28;20274;-73
2020/12/13 04:23:39;;;;;;;11.43;9.43;;;12.20;73.30;;;;;;2104942;28;20028;-73
2020/12/13 04:24:40;;;;;;;11.40;9.05;;;12.20;73.30;;;;;;2113119;28;20058;-74
2020/12/13 04:25:40;;;;;;;10.07;9.00;;;12.20;73.40;;;;;;2113542;28;20038;-73
2020/12/13 04:26:41;;;;;;;10.00;8.38;;;12.20;73.30;;;;;;2113183;28;20034;-73
2020/12/13 04:27:41;;;;;;;11.45;9.15;;;12.20;73.30;;;;;;2114383;28;20623;-74
2020/12/13 04:28:42;;;;;;;11.65;9.10;;;12.20;73.30;;;;;;2113342;28;20709;-75
2020/12/13 04:29:43;;;;;;;10.68;9.00;;;12.20;73.30;;;;;;2113464;28;20027;-74
2020/12/13 04:30:43;;;;;;;9.57;8.27;;;12.30;73.30;;;;;;2102175;28;20455;-76
2020/12/13 04:31:44;;;;;;;10.43;9.27;;;12.20;73.20;;;;;;2101064;28;20043;-75
2020/12/13 04:32:44;;;;;;;10.43;9.00;;;12.20;73.20;;;;;;2102319;28;20022;-76
2020/12/13 04:33:45;;;;;;;9.68;8.27;;;12.20;73.20;;;;;;2102035;28;20153;-75
2020/12/13 04:34:45;;;;;;;11.00;8.68;;;12.20;73.20;;;;;;2113317;28;20027;-75
2020/12/13 04:35:46;;;;;;;9.93;7.95;;;12.20;73.20;;;;;;2113750;28;20020;-74
2020/12/13 04:36:47;;;;;;;9.25;8.05;;;12.20;73.20;;;;;;2113542;28;20023;-75
2020/12/13 04:37:47;;;;;;;9.45;8.27;;;12.20;73.20;;;;;;2112799;28;20031;-75
2020/12/13 04:38:48;;;;;;;10.02;8.60;;;12.20;73.30;;;;;;2113987;28;20446;-77
2020/12/13 04:39:50;;;;;;;9.25;8.32;;;12.20;73.30;;;;;;2112879;28;20370;-76
2020/12/13 04:40:50;;;;;;;9.80;8.50;;;12.20;73.30;;;;;;2113632;28;20031;-73
2020/12/13 04:41:51;;;;;;;8.98;8.02;;;12.20;73.30;;;;;;2114222;28;20478;-74
2020/12/13 04:42:53;;;;;;;9.55;8.20;;;12.20;73.40;;;;;;2113205;28;20457;-74
2020/12/13 04:43:54;;;;;;;10.60;8.02;;;12.20;73.40;;;;;;2103506;28;21512;-73
2020/12/13 04:44:55;;;;;;;9.90;8.50;;;12.20;73.30;;;;;;2104348;28;20032;-74
2020/12/13 04:45:56;;;;;;;9.63;8.43;;;12.20;73.30;;;;;;2113186;28;20561;-76
2020/12/13 04:47:02;;;;;;;8.40;7.50;;;12.20;73.30;;;;;;2112199;28;20031;-75
2020/12/13 04:48:07;;;;;;;8.60;7.25;;;12.20;73.30;;;;;;2113683;28;20028;-75
2020/12/13 04:49:08;;;;;;;10.25;8.02;;;12.20;73.30;;;;;;2113097;28;20032;-74
2020/12/13 04:50:09;;;;;;;9.52;8.05;;;12.20;73.30;;;;;;2113287;28;20015;-75
2020/12/13 04:51:10;;;;;;;10.82;8.93;;;12.20;73.40;;;;;;2113729;28;20034;-75
2020/12/13 04:52:12;;;;;;;8.60;6.82;;;12.20;73.30;;;;;;2113291;28;20078;-75
2020/12/13 04:53:15;;;;;;;8.02;7.22;;;12.20;73.40;;;;;;2104189;28;20027;-75
2020/12/13 04:54:21;;;;;;;8.15;7.35;;;12.20;73.40;;;;;;2105253;28;20024;-75
2020/12/13 04:55:22;;;;;;;8.45;7.45;;;12.20;73.40;;;;;;2113262;28;20047;-75
2020/12/13 04:56:23;;;;;;;8.05;7.18;;;12.20;73.40;;;;;;2104452;28;20509;-76
2020/12/13 04:57:23;;;;;;;9.00;7.18;;;12.20;73.30;;;;;;2104581;28;20464;-74
2020/12/13 04:58:26;;;;;;;7.93;7.10;;;12.20;73.30;;;;;;2100442;28;20032;-75
2020/12/13 04:59:27;;;;;;;11.10;7.57;;;12.20;73.30;;;;;;2093167;28;20482;-75
2020/12/13 05:00:30;;;;;;;7.53;6.78;;;12.20;73.40;;;;;;2105109;28;20028;-76
2020/12/13 05:01:31;;;;;;;8.25;7.35;;;12.20;73.40;;;;;;2112349;28;20019;-76
2020/12/13 05:02:32;;;;;;;7.90;7.10;;;12.20;73.30;;;;;;2113225;28;20370;-75
2020/12/13 05:03:34;;;;;;;8.10;7.25;;;12.20;73.40;;;;;;2113798;28;20024;-75
2020/12/13 05:04:35;;;;;;;7.63;6.88;;;12.20;73.30;;;;;;2113265;28;20015;-77
2020/12/13 05:05:35;;;;;;;8.52;7.50;;;12.20;73.30;;;;;;2113753;28;20032;-74
2020/12/13 05:06:36;;;;;;;8.90;7.55;;;12.20;73.30;;;;;;2103397;28;20040;-75
2020/12/13 05:07:37;;;;;;;8.10;7.30;;;12.20;73.30;;;;;;2104601;28;20020;-76
2020/12/13 05:08:38;;;;;;;9.00;7.35;;;12.20;73.30;;;;;;2113629;28;20063;-77
2020/12/13 05:09:40;;;;;;;9.50;8.50;;;12.20;73.30;;;;;;2104871;28;20027;-75
2020/12/13 05:10:40;;;;;;;8.77;7.88;;;12.20;73.30;;;;;;2104485;28;20355;-77
2020/12/13 05:11:45;;;;;;;9.05;8.13;;;12.20;73.30;;;;;;2113807;28;20042;-76